Bungay, Illinois
Current Conditions -  °F | °C
As of 8:55 PM on Sunday 23 Nov 2014 (Local Time) from KFWC Reporting Station
Overcast Overcast  
Wind Chill: 12°   Ceiling: 900
Heat Index: 12°   Visibility: 10mi
Dew Point: 12°   Wind: 9mph
Humidity: 99%   Direction: 210°SSW
Pressure: 29.25"   Gusts: NA
Location:  38.1658°N, 88.3782°W
Report Text: KFWC 240255Z AUTO 21008KT 10SM OVC009 12/12 A2925 RMK AO1 T01220120
Loading
Personal Weather Stations






























Interactive Weather Map New forecast layout! Learn more

10-Day Weather Forecast

Advertisements
Track Severe Weather on mobile